sensor_id;sensor_type;location;lat;lon;timestamp;temperature;humidity
20376;DHT22;10347;51.828;6.466;2023-12-28T00:02:02;11.20;99.90
20376;DHT22;10347;51.828;6.466;2023-12-28T00:04:27;11.20;99.90
20376;DHT22;10347;51.828;6.466;2023-12-28T00:06:53;11.30;99.90
20376;DHT22;10347;51.828;6.466;2023-12-28T00:09:19;11.20;99.90
20376;DHT22;10347;51.828;6.466;2023-12-28T00:11:44;11.30;99.90
20376;DHT22;10347;51.828;6.466;2023-12-28T00:14:10;11.30;99.90
20376;DHT22;10347;51.828;6.466;2023-12-28T00:16:35;11.30;99.90
20376;DHT22;10347;51.828;6.466;2023-12-28T00:19:03;11.30;99.90
20376;DHT22;10347;51.828;6.466;2023-12-28T00:21:29;11.30;99.90
20376;DHT22;10347;51.828;6.466;2023-12-28T00:23:55;11.30;99.90
20376;DHT22;10347;51.828;6.466;2023-12-28T00:26:20;11.30;99.90
20376;DHT22;10347;51.828;6.466;2023-12-28T00:28:47;11.40;99.90
20376;DHT22;10347;51.828;6.466;2023-12-28T00:31:13;11.40;99.90
20376;DHT22;10347;51.828;6.466;2023-12-28T00:33:38;11.40;99.90
20376;DHT22;10347;51.828;6.466;2023-12-28T00:36:04;11.40;99.90
20376;DHT22;10347;51.828;6.466;2023-12-28T00:38:29;11.30;99.90
20376;DHT22;10347;51.828;6.466;2023-12-28T00:40:55;11.40;99.90
20376;DHT22;10347;51.828;6.466;2023-12-28T00:43:20;11.30;99.90
20376;DHT22;10347;51.828;6.466;2023-12-28T00:45:46;11.40;99.90
20376;DHT22;10347;51.828;6.466;2023-12-28T00:48:12;11.40;99.90
20376;DHT22;10347;51.828;6.466;2023-12-28T00:50:37;11.40;99.90
20376;DHT22;10347;51.828;6.466;2023-12-28T00:53:03;11.30;99.90
20376;DHT22;10347;51.828;6.466;2023-12-28T00:55:28;11.30;99.90
20376;DHT22;10347;51.828;6.466;2023-12-28T00:57:54;11.40;99.90
20376;DHT22;10347;51.828;6.466;2023-12-28T01:00:19;11.40;99.90
20376;DHT22;10347;51.828;6.466;2023-12-28T01:02:45;11.40;99.90
20376;DHT22;10347;51.828;6.466;2023-12-28T01:05:14;11.40;99.90
20376;DHT22;10347;51.828;6.466;2023-12-28T01:07:40;11.40;99.90
20376;DHT22;10347;51.828;6.466;2023-12-28T01:10:06;11.50;99.90
20376;DHT22;10347;51.828;6.466;2023-12-28T01:12:32;11.50;99.90
20376;DHT22;10347;51.828;6.466;2023-12-28T01:14:58;11.50;99.90
20376;DHT22;10347;51.828;6.466;2023-12-28T01:17:24;11.50;99.90
20376;DHT22;10347;51.828;6.466;2023-12-28T01:19:49;11.50;99.90
20376;DHT22;10347;51.828;6.466;2023-12-28T01:22:15;11.40;99.90
20376;DHT22;10347;51.828;6.466;2023-12-28T01:24:40;11.40;99.90
20376;DHT22;10347;51.828;6.466;2023-12-28T01:27:06;11.40;99.90
20376;DHT22;10347;51.828;6.466;2023-12-28T01:29:32;11.40;99.90
20376;DHT22;10347;51.828;6.466;2023-12-28T01:31:58;11.50;99.90
20376;DHT22;10347;51.828;6.466;2023-12-28T01:34:23;11.40;99.90
20376;DHT22;10347;51.828;6.466;2023-12-28T01:36:49;11.50;99.90
20376;DHT22;10347;51.828;6.466;2023-12-28T01:39:14;11.50;99.90
20376;DHT22;10347;51.828;6.466;2023-12-28T01:41:41;11.50;99.90
20376;DHT22;10347;51.828;6.466;2023-12-28T01:44:07;11.40;99.90
20376;DHT22;10347;51.828;6.466;2023-12-28T01:46:32;11.40;99.90
20376;DHT22;10347;51.828;6.466;2023-12-28T01:48:58;11.40;99.90
20376;DHT22;10347;51.828;6.466;2023-12-28T01:51:24;11.50;99.90
20376;DHT22;10347;51.828;6.466;2023-12-28T01:53:51;11.50;99.90
20376;DHT22;10347;51.828;6.466;2023-12-28T01:56:18;11.40;99.90
20376;DHT22;10347;51.828;6.466;2023-12-28T01:58:46;11.50;99.90
20376;DHT22;10347;51.828;6.466;2023-12-28T02:01:13;11.50;99.90
20376;DHT22;10347;51.828;6.466;2023-12-28T02:03:38;11.50;99.90
20376;DHT22;10347;51.828;6.466;2023-12-28T02:06:06;11.40;99.90
20376;DHT22;10347;51.828;6.466;2023-12-28T02:08:32;11.50;99.90
20376;DHT22;10347;51.828;6.466;2023-12-28T02:10:58;11.50;99.90
20376;DHT22;10347;51.828;6.466;2023-12-28T02:13:24;11.50;99.90
20376;DHT22;10347;51.828;6.466;2023-12-28T02:15:55;11.50;99.90
20376;DHT22;10347;51.828;6.466;2023-12-28T02:18:30;11.50;99.90
20376;DHT22;10347;51.828;6.466;2023-12-28T02:20:58;11.50;99.90
20376;DHT22;10347;51.828;6.466;2023-12-28T02:23:23;11.50;99.90
20376;DHT22;10347;51.828;6.466;2023-12-28T02:25:49;11.50;99.90
20376;DHT22;10347;51.828;6.466;2023-12-28T02:28:15;11.60;99.90
20376;DHT22;10347;51.828;6.466;2023-12-28T02:30:40;11.50;99.90
20376;DHT22;10347;51.828;6.466;2023-12-28T02:35:52;11.50;99.90
20376;DHT22;10347;51.828;6.466;2023-12-28T02:38:20;11.60;99.90
20376;DHT22;10347;51.828;6.466;2023-12-28T02:40:47;11.60;99.90
20376;DHT22;10347;51.828;6.466;2023-12-28T02:43:14;11.50;99.90
20376;DHT22;10347;51.828;6.466;2023-12-28T02:45:40;11.50;99.90
20376;DHT22;10347;51.828;6.466;2023-12-28T02:48:05;11.50;99.90
20376;DHT22;10347;51.828;6.466;2023-12-28T02:50:34;11.50;99.90
20376;DHT22;10347;51.828;6.466;2023-12-28T02:53:00;11.50;99.90
20376;DHT22;10347;51.828;6.466;2023-12-28T02:55:26;11.50;99.90
20376;DHT22;10347;51.828;6.466;2023-12-28T02:57:53;11.50;99.90
20376;DHT22;10347;51.828;6.466;2023-12-28T03:00:24;11.50;99.90
20376;DHT22;10347;51.828;6.466;2023-12-28T03:02:50;11.50;99.90
20376;DHT22;10347;51.828;6.466;2023-12-28T03:05:16;11.50;99.90
20376;DHT22;10347;51.828;6.466;2023-12-28T03:07:42;11.50;99.90
20376;DHT22;10347;51.828;6.466;2023-12-28T03:10:08;11.50;99.90
20376;DHT22;10347;51.828;6.466;2023-12-28T03:12:34;11.50;99.90
20376;DHT22;10347;51.828;6.466;2023-12-28T03:14:59;11.50;99.90
20376;DHT22;10347;51.828;6.466;2023-12-28T03:17:25;11.50;99.90
20376;DHT22;10347;51.828;6.466;2023-12-28T03:19:50;11.50;99.90
20376;DHT22;10347;51.828;6.466;2023-12-28T03:22:16;11.50;99.90
20376;DHT22;10347;51.828;6.466;2023-12-28T03:24:43;11.50;99.90
20376;DHT22;10347;51.828;6.466;2023-12-28T03:27:08;11.50;99.90
20376;DHT22;10347;51.828;6.466;2023-12-28T03:29:34;11.40;99.90
20376;DHT22;10347;51.828;6.466;2023-12-28T03:31:59;11.40;99.90
20376;DHT22;10347;51.828;6.466;2023-12-28T03:34:26;11.40;99.90
20376;DHT22;10347;51.828;6.466;2023-12-28T03:36:52;11.40;99.90
20376;DHT22;10347;51.828;6.466;2023-12-28T03:39:18;11.40;99.90
20376;DHT22;10347;51.828;6.466;2023-12-28T03:41:44;11.40;99.90
20376;DHT22;10347;51.828;6.466;2023-12-28T03:44:09;11.40;99.90
20376;DHT22;10347;51.828;6.466;2023-12-28T03:46:35;11.40;99.90
20376;DHT22;10347;51.828;6.466;2023-12-28T03:49:00;11.50;99.90
20376;DHT22;10347;51.828;6.466;2023-12-28T03:51:26;11.50;99.90
20376;DHT22;10347;51.828;6.466;2023-12-28T03:53:52;11.40;99.90
20376;DHT22;10347;51.828;6.466;2023-12-28T03:56:25;11.50;99.90
20376;DHT22;10347;51.828;6.466;2023-12-28T03:58:51;11.40;99.90
20376;DHT22;10347;51.828;6.466;2023-12-28T04:01:18;11.40;99.90
20376;DHT22;10347;51.828;6.466;2023-12-28T04:03:45;11.40;99.90
20376;DHT22;10347;51.828;6.466;2023-12-28T04:06:11;11.40;99.90
20376;DHT22;10347;51.828;6.466;2023-12-28T04:08:38;11.40;99.90
20376;DHT22;10347;51.828;6.466;2023-12-28T04:11:03;11.40;99.90
20376;DHT22;10347;51.828;6.466;2023-12-28T04:13:29;11.40;99.90
20376;DHT22;10347;51.828;6.466;2023-12-28T04:15:54;11.50;99.90
20376;DHT22;10347;51.828;6.466;2023-12-28T04:18:20;11.50;99.90
20376;DHT22;10347;51.828;6.466;2023-12-28T04:20:46;11.40;99.90
20376;DHT22;10347;51.828;6.466;2023-12-28T04:23:11;11.40;99.90
20376;DHT22;10347;51.828;6.466;2023-12-28T04:25:37;11.50;99.90
20376;DHT22;10347;51.828;6.466;2023-12-28T04:28:02;11.40;99.90
20376;DHT22;10347;51.828;6.466;2023-12-28T04:30:28;11.50;99.90
20376;DHT22;10347;51.828;6.466;2023-12-28T04:32:53;11.50;99.90
20376;DHT22;10347;51.828;6.466;2023-12-28T04:35:19;11.50;99.90
20376;DHT22;10347;51.828;6.466;2023-12-28T04:37:44;11.50;99.90
20376;DHT22;10347;51.828;6.466;2023-12-28T04:40:10;11.50;99.90
20376;DHT22;10347;51.828;6.466;2023-12-28T04:42:36;11.40;99.90
20376;DHT22;10347;51.828;6.466;2023-12-28T04:45:02;11.50;99.90
20376;DHT22;10347;51.828;6.466;2023-12-28T04:47:27;11.50;99.90
20376;DHT22;10347;51.828;6.466;2023-12-28T04:49:53;11.50;99.90
20376;DHT22;10347;51.828;6.466;2023-12-28T04:52:18;11.50;99.90
20376;DHT22;10347;51.828;6.466;2023-12-28T04:54:44;11.50;99.90
20376;DHT22;10347;51.828;6.466;2023-12-28T04:57:09;11.50;99.90
20376;DHT22;10347;51.828;6.466;2023-12-28T04:59:41;11.50;99.90
20376;DHT22;10347;51.828;6.466;2023-12-28T05:02:07;11.50;99.90
20376;DHT22;10347;51.828;6.466;2023-12-28T05:04:33;11.50;99.90
20376;DHT22;10347;51.828;6.466;2023-12-28T05:06:58;11.50;99.90
20376;DHT22;10347;51.828;6.466;2023-12-28T05:09:24;11.50;99.90
20376;DHT22;10347;51.828;6.466;2023-12-28T05:11:50;11.50;99.90
20376;DHT22;10347;51.828;6.466;2023-12-28T05:14:15;11.50;99.90
20376;DHT22;10347;51.828;6.466;2023-12-28T05:16:41;11.50;99.90
20376;DHT22;10347;51.828;6.466;2023-12-28T05:19:06;11.50;99.90
20376;DHT22;10347;51.828;6.466;2023-12-28T05:21:32;11.50;99.90
20376;DHT22;10347;51.828;6.466;2023-12-28T05:23:58;11.50;99.90
20376;DHT22;10347;51.828;6.466;2023-12-28T05:26:23;11.50;99.90
20376;DHT22;10347;51.828;6.466;2023-12-28T05:28:49;11.50;99.90
20376;DHT22;10347;51.828;6.466;2023-12-28T05:31:15;11.50;99.90
20376;DHT22;10347;51.828;6.466;2023-12-28T05:33:40;11.50;99.90
20376;DHT22;10347;51.828;6.466;2023-12-28T05:36:06;11.50;99.90
20376;DHT22;10347;51.828;6.466;2023-12-28T05:38:32;11.50;99.90
20376;DHT22;10347;51.828;6.466;2023-12-28T05:40:57;11.60;99.90
20376;DHT22;10347;51.828;6.466;2023-12-28T05:43:23;11.60;99.90
20376;DHT22;10347;51.828;6.466;2023-12-28T05:45:48;11.60;99.90
20376;DHT22;10347;51.828;6.466;2023-12-28T05:48:14;11.50;99.90
20376;DHT22;10347;51.828;6.466;2023-12-28T05:50:40;11.60;99.90
20376;DHT22;10347;51.828;6.466;2023-12-28T05:53:05;11.60;99.90
20376;DHT22;10347;51.828;6.466;2023-12-28T05:55:31;11.60;99.90
20376;DHT22;10347;51.828;6.466;2023-12-28T05:57:56;11.60;99.90
20376;DHT22;10347;51.828;6.466;2023-12-28T06:00:22;11.60;99.90
20376;DHT22;10347;51.828;6.466;2023-12-28T06:02:48;11.60;99.90
20376;DHT22;10347;51.828;6.466;2023-12-28T06:05:17;11.60;99.90
20376;DHT22;10347;51.828;6.466;2023-12-28T06:07:43;11.60;99.90
20376;DHT22;10347;51.828;6.466;2023-12-28T06:10:09;11.70;99.90
20376;DHT22;10347;51.828;6.466;2023-12-28T06:12:35;11.60;99.90
20376;DHT22;10347;51.828;6.466;2023-12-28T06:15:01;11.60;99.90
20376;DHT22;10347;51.828;6.466;2023-12-28T06:17:28;11.70;99.90
20376;DHT22;10347;51.828;6.466;2023-12-28T06:19:53;11.70;99.90
20376;DHT22;10347;51.828;6.466;2023-12-28T06:22:19;11.70;99.90
20376;DHT22;10347;51.828;6.466;2023-12-28T06:24:45;11.70;99.90
20376;DHT22;10347;51.828;6.466;2023-12-28T06:27:11;11.70;99.90
20376;DHT22;10347;51.828;6.466;2023-12-28T06:29:36;11.70;99.90
20376;DHT22;10347;51.828;6.466;2023-12-28T06:32:02;11.70;99.90
20376;DHT22;10347;51.828;6.466;2023-12-28T06:34:28;11.70;99.90
20376;DHT22;10347;51.828;6.466;2023-12-28T06:36:53;11.70;99.90
20376;DHT22;10347;51.828;6.466;2023-12-28T06:39:19;11.70;99.90
20376;DHT22;10347;51.828;6.466;2023-12-28T06:41:48;11.70;99.90
20376;DHT22;10347;51.828;6.466;2023-12-28T06:44:14;11.70;99.90
20376;DHT22;10347;51.828;6.466;2023-12-28T06:46:40;11.70;99.90
20376;DHT22;10347;51.828;6.466;2023-12-28T06:49:06;11.70;99.90
20376;DHT22;10347;51.828;6.466;2023-12-28T06:51:31;11.70;99.90
20376;DHT22;10347;51.828;6.466;2023-12-28T06:53:57;11.70;99.90
20376;DHT22;10347;51.828;6.466;2023-12-28T06:56:23;11.70;99.90
20376;DHT22;10347;51.828;6.466;2023-12-28T06:58:48;11.70;99.90
20376;DHT22;10347;51.828;6.466;2023-12-28T07:01:14;11.70;99.90
20376;DHT22;10347;51.828;6.466;2023-12-28T07:03:40;11.70;99.90
20376;DHT22;10347;51.828;6.466;2023-12-28T07:06:05;11.70;99.90
20376;DHT22;10347;51.828;6.466;2023-12-28T07:08:31;11.70;99.90
20376;DHT22;10347;51.828;6.466;2023-12-28T07:10:56;11.70;99.90
20376;DHT22;10347;51.828;6.466;2023-12-28T07:13:22;11.70;99.90
20376;DHT22;10347;51.828;6.466;2023-12-28T07:15:48;11.70;99.90
20376;DHT22;10347;51.828;6.466;2023-12-28T07:18:14;11.70;99.90
20376;DHT22;10347;51.828;6.466;2023-12-28T07:20:39;11.70;99.90
20376;DHT22;10347;51.828;6.466;2023-12-28T07:23:05;11.80;99.90
20376;DHT22;10347;51.828;6.466;2023-12-28T07:25:31;11.70;99.90
20376;DHT22;10347;51.828;6.466;2023-12-28T07:27:56;11.80;99.90
20376;DHT22;10347;51.828;6.466;2023-12-28T07:30:22;11.80;99.90
20376;DHT22;10347;51.828;6.466;2023-12-28T07:32:47;11.80;99.90
20376;DHT22;10347;51.828;6.466;2023-12-28T07:35:13;11.80;99.90
20376;DHT22;10347;51.828;6.466;2023-12-28T07:37:39;11.80;99.90
20376;DHT22;10347;51.828;6.466;2023-12-28T07:40:05;11.80;99.90
20376;DHT22;10347;51.828;6.466;2023-12-28T07:42:30;11.80;99.90
20376;DHT22;10347;51.828;6.466;2023-12-28T07:44:56;11.80;99.90
20376;DHT22;10347;51.828;6.466;2023-12-28T07:47:22;11.80;99.90
20376;DHT22;10347;51.828;6.466;2023-12-28T07:49:47;11.80;99.90
20376;DHT22;10347;51.828;6.466;2023-12-28T07:52:13;11.80;99.90
20376;DHT22;10347;51.828;6.466;2023-12-28T07:54:38;11.80;99.90
20376;DHT22;10347;51.828;6.466;2023-12-28T07:57:04;11.80;99.90
20376;DHT22;10347;51.828;6.466;2023-12-28T07:59:30;11.80;99.90
20376;DHT22;10347;51.828;6.466;2023-12-28T08:01:55;11.80;99.90
20376;DHT22;10347;51.828;6.466;2023-12-28T08:04:21;11.80;99.90
20376;DHT22;10347;51.828;6.466;2023-12-28T08:06:47;11.70;99.90
20376;DHT22;10347;51.828;6.466;2023-12-28T08:09:12;11.80;99.90
20376;DHT22;10347;51.828;6.466;2023-12-28T08:11:38;11.80;99.90
20376;DHT22;10347;51.828;6.466;2023-12-28T08:14:03;11.80;99.90
20376;DHT22;10347;51.828;6.466;2023-12-28T08:16:29;11.80;99.90
20376;DHT22;10347;51.828;6.466;2023-12-28T08:18:54;11.80;99.90
20376;DHT22;10347;51.828;6.466;2023-12-28T08:21:20;11.80;99.90
20376;DHT22;10347;51.828;6.466;2023-12-28T08:23:45;11.80;99.90
20376;DHT22;10347;51.828;6.466;2023-12-28T08:26:11;11.80;99.90
20376;DHT22;10347;51.828;6.466;2023-12-28T08:28:37;11.80;99.90
20376;DHT22;10347;51.828;6.466;2023-12-28T08:31:02;11.80;99.90
20376;DHT22;10347;51.828;6.466;2023-12-28T08:33:28;11.80;99.90
20376;DHT22;10347;51.828;6.466;2023-12-28T08:35:53;11.80;99.90
20376;DHT22;10347;51.828;6.466;2023-12-28T08:38:19;11.80;99.90
20376;DHT22;10347;51.828;6.466;2023-12-28T08:40:45;11.80;99.90
20376;DHT22;10347;51.828;6.466;2023-12-28T08:43:11;11.80;99.90
20376;DHT22;10347;51.828;6.466;2023-12-28T08:45:36;11.80;99.90
20376;DHT22;10347;51.828;6.466;2023-12-28T08:48:03;11.80;99.90
20376;DHT22;10347;51.828;6.466;2023-12-28T08:50:28;11.90;99.90
20376;DHT22;10347;51.828;6.466;2023-12-28T08:52:54;11.90;99.90
20376;DHT22;10347;51.828;6.466;2023-12-28T08:55:20;11.90;99.90
20376;DHT22;10347;51.828;6.466;2023-12-28T08:57:46;11.90;99.90
20376;DHT22;10347;51.828;6.466;2023-12-28T09:00:13;11.90;99.90
20376;DHT22;10347;51.828;6.466;2023-12-28T09:02:41;11.90;99.90
20376;DHT22;10347;51.828;6.466;2023-12-28T09:05:06;11.90;99.90
20376;DHT22;10347;51.828;6.466;2023-12-28T09:07:32;11.90;99.90
20376;DHT22;10347;51.828;6.466;2023-12-28T09:09:58;11.90;99.90
20376;DHT22;10347;51.828;6.466;2023-12-28T09:12:23;12.00;99.90
20376;DHT22;10347;51.828;6.466;2023-12-28T09:14:49;11.90;99.90
20376;DHT22;10347;51.828;6.466;2023-12-28T09:17:20;12.00;99.90
20376;DHT22;10347;51.828;6.466;2023-12-28T09:19:46;12.00;99.90
20376;DHT22;10347;51.828;6.466;2023-12-28T09:22:11;12.00;99.90
20376;DHT22;10347;51.828;6.466;2023-12-28T09:24:37;12.00;99.90
20376;DHT22;10347;51.828;6.466;2023-12-28T09:27:03;12.00;99.90
20376;DHT22;10347;51.828;6.466;2023-12-28T09:29:28;12.00;99.90
20376;DHT22;10347;51.828;6.466;2023-12-28T09:31:54;12.00;99.90
20376;DHT22;10347;51.828;6.466;2023-12-28T09:34:19;12.00;99.90
20376;DHT22;10347;51.828;6.466;2023-12-28T09:36:45;12.00;99.90
20376;DHT22;10347;51.828;6.466;2023-12-28T09:39:10;12.10;99.90
20376;DHT22;10347;51.828;6.466;2023-12-28T09:41:39;12.00;99.90
20376;DHT22;10347;51.828;6.466;2023-12-28T09:44:11;12.00;99.90
20376;DHT22;10347;51.828;6.466;2023-12-28T09:46:41;12.00;99.90
20376;DHT22;10347;51.828;6.466;2023-12-28T09:49:07;12.10;99.90
20376;DHT22;10347;51.828;6.466;2023-12-28T09:51:33;12.00;99.90
20376;DHT22;10347;51.828;6.466;2023-12-28T09:53:59;12.10;99.90
20376;DHT22;10347;51.828;6.466;2023-12-28T09:56:25;12.10;99.90
20376;DHT22;10347;51.828;6.466;2023-12-28T09:58:51;12.10;99.90
20376;DHT22;10347;51.828;6.466;2023-12-28T10:01:20;12.10;99.90
20376;DHT22;10347;51.828;6.466;2023-12-28T10:03:45;12.10;99.90
20376;DHT22;10347;51.828;6.466;2023-12-28T10:06:11;12.10;99.90
20376;DHT22;10347;51.828;6.466;2023-12-28T10:08:36;12.10;99.90
20376;DHT22;10347;51.828;6.466;2023-12-28T10:11:03;12.10;99.90
20376;DHT22;10347;51.828;6.466;2023-12-28T10:13:32;12.10;99.90
20376;DHT22;10347;51.828;6.466;2023-12-28T10:15:59;12.10;99.90
20376;DHT22;10347;51.828;6.466;2023-12-28T10:18:24;12.10;99.90
20376;DHT22;10347;51.828;6.466;2023-12-28T10:20:51;12.10;99.90
20376;DHT22;10347;51.828;6.466;2023-12-28T10:23:20;12.10;99.90
20376;DHT22;10347;51.828;6.466;2023-12-28T10:25:46;12.10;99.90
20376;DHT22;10347;51.828;6.466;2023-12-28T10:28:13;12.10;99.90
20376;DHT22;10347;51.828;6.466;2023-12-28T10:30:39;12.10;99.90
20376;DHT22;10347;51.828;6.466;2023-12-28T10:33:08;12.20;99.90
20376;DHT22;10347;51.828;6.466;2023-12-28T10:35:33;12.10;99.90
20376;DHT22;10347;51.828;6.466;2023-12-28T10:38:00;12.10;99.90
20376;DHT22;10347;51.828;6.466;2023-12-28T10:40:27;12.20;99.90
20376;DHT22;10347;51.828;6.466;2023-12-28T10:42:59;12.20;99.90
20376;DHT22;10347;51.828;6.466;2023-12-28T10:45:28;12.20;99.90
20376;DHT22;10347;51.828;6.466;2023-12-28T10:48:14;12.20;99.90
20376;DHT22;10347;51.828;6.466;2023-12-28T10:50:46;12.20;99.90
20376;DHT22;10347;51.828;6.466;2023-12-28T10:53:26;12.20;99.90
20376;DHT22;10347;51.828;6.466;2023-12-28T10:58:49;12.20;99.90
20376;DHT22;10347;51.828;6.466;2023-12-28T11:01:28;12.30;99.90
20376;DHT22;10347;51.828;6.466;2023-12-28T11:04:07;12.30;99.90
20376;DHT22;10347;51.828;6.466;2023-12-28T11:06:35;12.30;99.90
20376;DHT22;10347;51.828;6.466;2023-12-28T11:09:00;12.40;99.90
20376;DHT22;10347;51.828;6.466;2023-12-28T11:11:27;12.30;99.90
20376;DHT22;10347;51.828;6.466;2023-12-28T11:13:54;12.40;99.90
20376;DHT22;10347;51.828;6.466;2023-12-28T11:16:22;12.40;99.90
20376;DHT22;10347;51.828;6.466;2023-12-28T11:18:48;12.30;99.90
20376;DHT22;10347;51.828;6.466;2023-12-28T11:21:15;12.40;99.90
20376;DHT22;10347;51.828;6.466;2023-12-28T11:23:42;12.40;99.90
20376;DHT22;10347;51.828;6.466;2023-12-28T11:26:21;12.40;99.90
20376;DHT22;10347;51.828;6.466;2023-12-28T11:28:47;12.40;99.90
20376;DHT22;10347;51.828;6.466;2023-12-28T11:31:16;12.40;99.90
20376;DHT22;10347;51.828;6.466;2023-12-28T11:33:46;12.40;99.90
20376;DHT22;10347;51.828;6.466;2023-12-28T11:36:33;12.40;99.90
20376;DHT22;10347;51.828;6.466;2023-12-28T11:39:02;12.50;99.90
20376;DHT22;10347;51.828;6.466;2023-12-28T11:41:31;12.50;99.90
20376;DHT22;10347;51.828;6.466;2023-12-28T11:43:57;12.50;99.90
20376;DHT22;10347;51.828;6.466;2023-12-28T11:46:22;12.50;99.90
20376;DHT22;10347;51.828;6.466;2023-12-28T11:48:48;12.50;99.90
20376;DHT22;10347;51.828;6.466;2023-12-28T11:51:14;12.50;99.90
20376;DHT22;10347;51.828;6.466;2023-12-28T11:53:41;12.50;99.90
20376;DHT22;10347;51.828;6.466;2023-12-28T11:56:08;12.50;99.90
20376;DHT22;10347;51.828;6.466;2023-12-28T11:58:35;12.60;99.90
20376;DHT22;10347;51.828;6.466;2023-12-28T12:01:04;12.60;99.90
20376;DHT22;10347;51.828;6.466;2023-12-28T12:03:30;12.60;99.90
20376;DHT22;10347;51.828;6.466;2023-12-28T12:05:56;12.60;99.90
20376;DHT22;10347;51.828;6.466;2023-12-28T12:08:23;12.60;99.90
20376;DHT22;10347;51.828;6.466;2023-12-28T12:10:58;12.60;99.90
20376;DHT22;10347;51.828;6.466;2023-12-28T12:13:24;12.60;99.90
20376;DHT22;10347;51.828;6.466;2023-12-28T12:15:51;12.60;99.90
20376;DHT22;10347;51.828;6.466;2023-12-28T12:18:17;12.50;99.90
20376;DHT22;10347;51.828;6.466;2023-12-28T12:20:42;12.60;99.90
20376;DHT22;10347;51.828;6.466;2023-12-28T12:23:08;12.60;99.90
20376;DHT22;10347;51.828;6.466;2023-12-28T12:25:34;12.60;99.90
20376;DHT22;10347;51.828;6.466;2023-12-28T12:27:59;12.60;99.90
20376;DHT22;10347;51.828;6.466;2023-12-28T12:30:25;12.70;99.90
20376;DHT22;10347;51.828;6.466;2023-12-28T12:32:50;12.60;99.90
20376;DHT22;10347;51.828;6.466;2023-12-28T12:35:16;12.70;99.90
20376;DHT22;10347;51.828;6.466;2023-12-28T12:37:43;12.70;99.90
20376;DHT22;10347;51.828;6.466;2023-12-28T12:40:09;12.70;99.90
20376;DHT22;10347;51.828;6.466;2023-12-28T12:42:35;12.70;99.90
20376;DHT22;10347;51.828;6.466;2023-12-28T12:45:01;12.70;99.90
20376;DHT22;10347;51.828;6.466;2023-12-28T12:47:32;12.70;99.90
20376;DHT22;10347;51.828;6.466;2023-12-28T12:49:58;12.70;99.90
20376;DHT22;10347;51.828;6.466;2023-12-28T12:52:25;12.70;99.90
20376;DHT22;10347;51.828;6.466;2023-12-28T12:54:57;12.70;99.90
20376;DHT22;10347;51.828;6.466;2023-12-28T12:57:24;12.70;99.90
20376;DHT22;10347;51.828;6.466;2023-12-28T12:59:51;12.70;99.90
20376;DHT22;10347;51.828;6.466;2023-12-28T13:02:17;12.60;99.90
20376;DHT22;10347;51.828;6.466;2023-12-28T13:04:42;12.60;99.90
20376;DHT22;10347;51.828;6.466;2023-12-28T13:07:08;12.70;99.90
20376;DHT22;10347;51.828;6.466;2023-12-28T13:09:34;12.70;99.90
20376;DHT22;10347;51.828;6.466;2023-12-28T13:12:01;12.70;99.90
20376;DHT22;10347;51.828;6.466;2023-12-28T13:14:27;12.70;99.90
20376;DHT22;10347;51.828;6.466;2023-12-28T13:16:52;12.70;99.90
20376;DHT22;10347;51.828;6.466;2023-12-28T13:19:20;12.70;99.90
20376;DHT22;10347;51.828;6.466;2023-12-28T13:21:46;12.70;99.90
20376;DHT22;10347;51.828;6.466;2023-12-28T13:24:11;12.80;99.90
20376;DHT22;10347;51.828;6.466;2023-12-28T13:26:37;12.70;99.90
20376;DHT22;10347;51.828;6.466;2023-12-28T13:29:02;12.80;99.90
20376;DHT22;10347;51.828;6.466;2023-12-28T13:31:28;12.70;99.90
20376;DHT22;10347;51.828;6.466;2023-12-28T13:33:53;12.80;99.90
20376;DHT22;10347;51.828;6.466;2023-12-28T13:36:19;12.80;99.90
20376;DHT22;10347;51.828;6.466;2023-12-28T13:38:44;12.80;99.90
20376;DHT22;10347;51.828;6.466;2023-12-28T13:41:10;12.80;99.90
20376;DHT22;10347;51.828;6.466;2023-12-28T13:43:36;12.80;99.90
20376;DHT22;10347;51.828;6.466;2023-12-28T13:46:01;12.80;99.90
20376;DHT22;10347;51.828;6.466;2023-12-28T13:48:32;12.80;99.90
20376;DHT22;10347;51.828;6.466;2023-12-28T13:50:57;12.80;99.90
20376;DHT22;10347;51.828;6.466;2023-12-28T13:53:23;12.80;99.90
20376;DHT22;10347;51.828;6.466;2023-12-28T13:55:48;12.80;99.90
20376;DHT22;10347;51.828;6.466;2023-12-28T13:58:14;12.80;99.90
20376;DHT22;10347;51.828;6.466;2023-12-28T14:00:40;12.80;99.90
20376;DHT22;10347;51.828;6.466;2023-12-28T14:03:05;12.80;99.90
20376;DHT22;10347;51.828;6.466;2023-12-28T14:05:31;12.80;99.90
20376;DHT22;10347;51.828;6.466;2023-12-28T14:07:57;12.80;99.90
20376;DHT22;10347;51.828;6.466;2023-12-28T14:10:22;12.70;99.90
20376;DHT22;10347;51.828;6.466;2023-12-28T14:12:48;12.80;99.90
20376;DHT22;10347;51.828;6.466;2023-12-28T14:15:14;12.80;99.90
20376;DHT22;10347;51.828;6.466;2023-12-28T14:17:41;12.80;99.90
20376;DHT22;10347;51.828;6.466;2023-12-28T14:20:07;12.80;99.90
20376;DHT22;10347;51.828;6.466;2023-12-28T14:22:37;12.80;99.90
20376;DHT22;10347;51.828;6.466;2023-12-28T14:25:03;12.80;99.90
20376;DHT22;10347;51.828;6.466;2023-12-28T14:27:29;12.80;99.90
20376;DHT22;10347;51.828;6.466;2023-12-28T14:29:56;12.80;99.90
20376;DHT22;10347;51.828;6.466;2023-12-28T14:32:22;12.80;99.90
20376;DHT22;10347;51.828;6.466;2023-12-28T14:34:47;12.80;99.90
20376;DHT22;10347;51.828;6.466;2023-12-28T14:37:13;12.80;99.90
20376;DHT22;10347;51.828;6.466;2023-12-28T14:39:39;12.80;99.90
20376;DHT22;10347;51.828;6.466;2023-12-28T14:42:04;12.80;99.90
20376;DHT22;10347;51.828;6.466;2023-12-28T14:44:30;12.80;99.90
20376;DHT22;10347;51.828;6.466;2023-12-28T14:46:57;12.80;99.90
20376;DHT22;10347;51.828;6.466;2023-12-28T14:49:22;12.80;99.90
20376;DHT22;10347;51.828;6.466;2023-12-28T14:51:48;12.80;99.90
20376;DHT22;10347;51.828;6.466;2023-12-28T14:54:14;12.70;99.90
20376;DHT22;10347;51.828;6.466;2023-12-28T14:56:39;12.70;99.90
20376;DHT22;10347;51.828;6.466;2023-12-28T14:59:05;12.80;99.90
20376;DHT22;10347;51.828;6.466;2023-12-28T15:01:30;12.80;99.90
20376;DHT22;10347;51.828;6.466;2023-12-28T15:03:56;12.80;99.90
20376;DHT22;10347;51.828;6.466;2023-12-28T15:06:21;12.80;99.90
20376;DHT22;10347;51.828;6.466;2023-12-28T15:08:47;12.80;99.90
20376;DHT22;10347;51.828;6.466;2023-12-28T15:11:12;12.80;99.90
20376;DHT22;10347;51.828;6.466;2023-12-28T15:13:38;12.80;99.90
20376;DHT22;10347;51.828;6.466;2023-12-28T15:16:05;12.80;99.90
20376;DHT22;10347;51.828;6.466;2023-12-28T15:18:31;12.80;99.90
20376;DHT22;10347;51.828;6.466;2023-12-28T15:20:57;12.80;99.90
20376;DHT22;10347;51.828;6.466;2023-12-28T15:23:22;12.80;99.90
20376;DHT22;10347;51.828;6.466;2023-12-28T15:25:48;12.70;99.90
20376;DHT22;10347;51.828;6.466;2023-12-28T15:28:15;12.80;99.90
20376;DHT22;10347;51.828;6.466;2023-12-28T15:30:40;12.70;99.90